Aeroporto :
LOGIN :

Iscrizione | Disclaimer

   EN    FR    IT 

 










Sommario :    VFR   VFR Marginale   IFR   IFR Intensivo   IFR Molto Intensivo
Visibilità : 
Base nubi : 
>= 8 km
>= 3000ft
5 / 8 km
1000 / 3000 ft
1500m / 5 km
500 / 1000 ft
800 / 1500m
200 / 500 ft
< 800m
< 200 ft
Simboli :   Temporali  Nebbia  Neve Forte  Precipitazioni Forti  Vento > 20 kt
SIGMETs :   Varie  Temporali  Ghiacco  Turbolenza  Onda orograficha  Ceneri Vulcaniche






- Altitudine del aeroporto : 174 ft
- Codice IATA : RYG


ENRY - Moss , Rygge

ULTIMO METAR :
  • 021520Z 25017G32KT 210V270 9999 FEW026 06/M08 Q0980

METARs OBSOLETI :
  • 021450Z 26023G36KT 9999 FEW030 06/M08 Q0980
  • 021420Z 26021G32KT 9999 FEW025 06/M07 Q0980
  • 021350Z 25024G37KT 9999 VCSH FEW023 06/M05 Q0980
  • 021320Z 26020KT 9999 VCSH FEW020 BKN055 05/M04 Q0980 TEMPO 26020G35KT SHRAGS

TAF TAF ENRY
Valido dal 02 a 12 ore il 03 a 12 ore UTC


0212/0312 22020KT 9999 FEW030 SCT070
TEMPO 0212/0218 24025G38KT SHRAGS FEW020CB BKN025
BECMG 0218/0220 28012KT
TEMPO 0218/0222 30018G28KT



MetMap, La meteo Aeronautica in un colpo d'occhio ! - Copyright ORBIFLY Dicembre 2007 - Disclaimer

ORBIFLY MET'MAP TEAM :

Programmazione e sviluppo : Alexandra Zaïnal
Concezione : Baudouin d'Aumeries
Aiuto per la programmazione : Marc-Olivier Méhu
Supporto tecnico e logistico : Manuel Goepfert
Aiuto per la traduzione : Arnaldo La Scala

Contatto : metmap@orbifly.com




FONTI E CREDITI :

   NOAA